Terminal Aerodrome Forecast
Issued by NWS Wichita, KS

Home | Current Version | Previous Version | Graphics & Text | Print | Product List | Glossary On
Versions: 1 2 3 4 5 6 7 8 9 10 11 12 13 14 15
000
FTUS43 KICT 191135
TAFICT
TAF
KICT 191135Z 1912/2012 17013KT P6SM FEW060 SCT150
     FM191700 18026G38KT P6SM FEW200
     FM200200 17018G22KT P6SM FEW250=

USA.gov is the U.S. government's official web portal to all federal, state and local government web resources and services.